sensor_id;sensor_type;location;lat;lon;timestamp;pressure;altitude;pressure_sealevel;temperature;humidity
22651;BME280;11492;42.646;23.400;2023-02-20T00:00:55;95320.78;;;11.76;51.25
22651;BME280;11492;42.646;23.400;2023-02-20T00:03:20;95318.22;;;11.76;51.34
22651;BME280;11492;42.646;23.400;2023-02-20T00:05:46;95327.28;;;11.72;51.75
22651;BME280;11492;42.646;23.400;2023-02-20T00:08:11;95322.66;;;11.68;52.19
22651;BME280;11492;42.646;23.400;2023-02-20T00:10:36;95323.88;;;11.57;52.37
22651;BME280;11492;42.646;23.400;2023-02-20T00:13:02;95324.09;;;11.70;52.69
22651;BME280;11492;42.646;23.400;2023-02-20T00:15:27;95326.03;;;11.68;52.78
22651;BME280;11492;42.646;23.400;2023-02-20T00:17:53;95330.41;;;11.68;52.59
22651;BME280;11492;42.646;23.400;2023-02-20T00:20:24;95325.59;;;11.50;52.79
22651;BME280;11492;42.646;23.400;2023-02-20T00:22:50;95336.25;;;11.47;53.94
22651;BME280;11492;42.646;23.400;2023-02-20T00:25:18;95326.38;;;11.51;53.90
22651;BME280;11492;42.646;23.400;2023-02-20T00:27:43;95342.88;;;11.50;53.51
22651;BME280;11492;42.646;23.400;2023-02-20T00:30:16;95342.22;;;11.48;53.53
22651;BME280;11492;42.646;23.400;2023-02-20T00:32:42;95345.56;;;11.56;53.09
22651;BME280;11492;42.646;23.400;2023-02-20T00:35:11;95324.94;;;11.48;53.71
22651;BME280;11492;42.646;23.400;2023-02-20T00:37:36;95331.75;;;11.49;54.15
22651;BME280;11492;42.646;23.400;2023-02-20T00:40:05;95324.88;;;11.56;54.28
22651;BME280;11492;42.646;23.400;2023-02-20T00:42:31;95313.47;;;11.51;53.77
22651;BME280;11492;42.646;23.400;2023-02-20T00:44:56;95322.91;;;11.44;53.73
22651;BME280;11492;42.646;23.400;2023-02-20T00:47:22;95308.63;;;11.48;54.24
22651;BME280;11492;42.646;23.400;2023-02-20T00:49:47;95307.72;;;11.41;54.86
22651;BME280;11492;42.646;23.400;2023-02-20T00:52:12;95323.91;;;11.35;55.10
22651;BME280;11492;42.646;23.400;2023-02-20T00:54:38;95313.13;;;11.32;54.44
22651;BME280;11492;42.646;23.400;2023-02-20T00:57:03;95317.72;;;11.22;55.49
22651;BME280;11492;42.646;23.400;2023-02-20T00:59:29;95332.19;;;11.31;54.63
22651;BME280;11492;42.646;23.400;2023-02-20T01:01:54;95335.19;;;11.20;55.23
22651;BME280;11492;42.646;23.400;2023-02-20T01:04:20;95337.09;;;11.26;55.21
22651;BME280;11492;42.646;23.400;2023-02-20T01:06:45;95340.66;;;11.25;54.84
22651;BME280;11492;42.646;23.400;2023-02-20T01:09:11;95336.81;;;11.21;55.28
22651;BME280;11492;42.646;23.400;2023-02-20T01:11:36;95353.00;;;11.15;55.77
22651;BME280;11492;42.646;23.400;2023-02-20T01:14:02;95361.38;;;11.17;55.25
22651;BME280;11492;42.646;23.400;2023-02-20T01:16:28;95373.41;;;11.10;55.60
22651;BME280;11492;42.646;23.400;2023-02-20T01:18:53;95372.81;;;11.00;55.52
22651;BME280;11492;42.646;23.400;2023-02-20T01:21:19;95380.56;;;11.00;55.90
22651;BME280;11492;42.646;23.400;2023-02-20T01:23:45;95372.63;;;11.02;56.43
22651;BME280;11492;42.646;23.400;2023-02-20T01:26:10;95369.06;;;10.81;56.42
22651;BME280;11492;42.646;23.400;2023-02-20T01:28:36;95383.91;;;10.87;56.62
22651;BME280;11492;42.646;23.400;2023-02-20T01:31:01;95389.81;;;10.95;56.74
22651;BME280;11492;42.646;23.400;2023-02-20T01:33:26;95385.63;;;10.94;56.64
22651;BME280;11492;42.646;23.400;2023-02-20T01:35:52;95388.03;;;10.95;57.06
22651;BME280;11492;42.646;23.400;2023-02-20T01:38:17;95386.22;;;10.82;57.10
22651;BME280;11492;42.646;23.400;2023-02-20T01:40:47;95382.75;;;10.89;56.91
22651;BME280;11492;42.646;23.400;2023-02-20T01:43:14;95382.25;;;10.94;56.61
22651;BME280;11492;42.646;23.400;2023-02-20T01:45:40;95386.94;;;10.90;57.26
22651;BME280;11492;42.646;23.400;2023-02-20T01:48:05;95378.59;;;10.80;57.34
22651;BME280;11492;42.646;23.400;2023-02-20T01:50:36;95379.38;;;10.89;57.69
22651;BME280;11492;42.646;23.400;2023-02-20T01:53:16;95399.06;;;10.90;57.91
22651;BME280;11492;42.646;23.400;2023-02-20T01:55:53;95395.44;;;10.76;58.18
22651;BME280;11492;42.646;23.400;2023-02-20T01:58:23;95386.66;;;10.85;58.09
22651;BME280;11492;42.646;23.400;2023-02-20T02:00:50;95376.59;;;10.68;58.54
22651;BME280;11492;42.646;23.400;2023-02-20T02:03:22;95388.72;;;10.68;58.96
22651;BME280;11492;42.646;23.400;2023-02-20T02:05:53;95386.53;;;10.79;58.48
22651;BME280;11492;42.646;23.400;2023-02-20T02:08:21;95399.28;;;10.80;58.65
22651;BME280;11492;42.646;23.400;2023-02-20T02:13:16;95409.69;;;10.65;59.12
22651;BME280;11492;42.646;23.400;2023-02-20T02:15:41;95398.03;;;10.76;58.57
22651;BME280;11492;42.646;23.400;2023-02-20T02:23:27;95424.34;;;10.34;59.01
22651;BME280;11492;42.646;23.400;2023-02-20T02:39:30;95423.66;;;10.02;58.10
22651;BME280;11492;42.646;23.400;2023-02-20T02:42:14;95410.13;;;10.00;58.30
22651;BME280;11492;42.646;23.400;2023-02-20T02:52:48;95442.72;;;9.94;58.70
22651;BME280;11492;42.646;23.400;2023-02-20T02:55:19;95442.72;;;9.94;59.02
22651;BME280;11492;42.646;23.400;2023-02-20T02:57:45;95451.75;;;9.90;58.28
22651;BME280;11492;42.646;23.400;2023-02-20T03:00:41;95454.63;;;9.95;58.65
22651;BME280;11492;42.646;23.400;2023-02-20T03:05:37;95469.41;;;10.08;58.40
22651;BME280;11492;42.646;23.400;2023-02-20T03:08:28;95463.66;;;9.91;58.53
22651;BME280;11492;42.646;23.400;2023-02-20T03:11:23;95461.72;;;9.69;59.32
22651;BME280;11492;42.646;23.400;2023-02-20T03:14:02;95454.75;;;9.77;58.92
22651;BME280;11492;42.646;23.400;2023-02-20T03:16:58;95443.66;;;9.69;59.67
22651;BME280;11492;42.646;23.400;2023-02-20T03:19:32;95456.69;;;9.68;59.34
22651;BME280;11492;42.646;23.400;2023-02-20T03:22:00;95470.75;;;9.65;59.87
22651;BME280;11492;42.646;23.400;2023-02-20T03:24:26;95448.50;;;9.72;59.07
22651;BME280;11492;42.646;23.400;2023-02-20T03:26:55;95463.00;;;9.81;59.06
22651;BME280;11492;42.646;23.400;2023-02-20T03:29:34;95460.44;;;9.73;59.21
22651;BME280;11492;42.646;23.400;2023-02-20T03:32:08;95468.81;;;9.75;58.43
22651;BME280;11492;42.646;23.400;2023-02-20T03:34:53;95474.94;;;9.74;59.08
22651;BME280;11492;42.646;23.400;2023-02-20T03:37:40;95497.97;;;9.60;59.47
22651;BME280;11492;42.646;23.400;2023-02-20T03:40:25;95486.84;;;9.67;59.11
22651;BME280;11492;42.646;23.400;2023-02-20T03:43:16;95489.75;;;9.64;58.99
22651;BME280;11492;42.646;23.400;2023-02-20T03:45:50;95489.75;;;9.88;62.51
22651;BME280;11492;42.646;23.400;2023-02-20T03:50:57;95491.38;;;10.04;58.96
22651;BME280;11492;42.646;23.400;2023-02-20T03:53:23;95473.78;;;10.16;57.85
22651;BME280;11492;42.646;23.400;2023-02-20T03:55:50;95490.81;;;10.24;57.49
22651;BME280;11492;42.646;23.400;2023-02-20T03:58:20;95484.22;;;10.14;57.62
22651;BME280;11492;42.646;23.400;2023-02-20T04:00:49;95492.94;;;10.21;57.39
22651;BME280;11492;42.646;23.400;2023-02-20T04:03:22;95487.78;;;10.21;57.12
22651;BME280;11492;42.646;23.400;2023-02-20T04:05:50;95483.91;;;10.17;57.44
22651;BME280;11492;42.646;23.400;2023-02-20T04:08:21;95495.88;;;10.02;56.44
22651;BME280;11492;42.646;23.400;2023-02-20T04:10:53;95488.47;;;9.60;57.68
22651;BME280;11492;42.646;23.400;2023-02-20T04:13:21;95491.53;;;9.64;57.40
22651;BME280;11492;42.646;23.400;2023-02-20T04:15:48;95510.34;;;9.56;57.36
22651;BME280;11492;42.646;23.400;2023-02-20T04:18:16;95501.97;;;9.39;57.71
22651;BME280;11492;42.646;23.400;2023-02-20T04:20:45;95497.94;;;9.36;58.54
22651;BME280;11492;42.646;23.400;2023-02-20T04:23:14;95511.28;;;9.24;57.88
22651;BME280;11492;42.646;23.400;2023-02-20T04:25:46;95504.88;;;9.28;58.04
22651;BME280;11492;42.646;23.400;2023-02-20T04:28:14;95510.19;;;9.34;58.32
22651;BME280;11492;42.646;23.400;2023-02-20T04:30:40;95513.25;;;9.38;57.73
22651;BME280;11492;42.646;23.400;2023-02-20T04:33:08;95503.09;;;9.36;57.74
22651;BME280;11492;42.646;23.400;2023-02-20T04:35:34;95515.50;;;9.41;57.89
22651;BME280;11492;42.646;23.400;2023-02-20T04:37:59;95511.78;;;9.35;57.88
22651;BME280;11492;42.646;23.400;2023-02-20T04:40:24;95521.00;;;9.38;58.23
22651;BME280;11492;42.646;23.400;2023-02-20T04:42:50;95509.88;;;9.45;58.55
22651;BME280;11492;42.646;23.400;2023-02-20T04:45:15;95500.38;;;9.53;58.40
22651;BME280;11492;42.646;23.400;2023-02-20T04:47:44;95505.84;;;9.35;58.21
22651;BME280;11492;42.646;23.400;2023-02-20T04:50:19;95516.47;;;9.40;58.68
22651;BME280;11492;42.646;23.400;2023-02-20T04:52:45;95515.69;;;9.47;58.45
22651;BME280;11492;42.646;23.400;2023-02-20T04:55:11;95532.59;;;9.49;58.53
22651;BME280;11492;42.646;23.400;2023-02-20T04:57:36;95535.66;;;9.53;58.29
22651;BME280;11492;42.646;23.400;2023-02-20T05:00:04;95530.50;;;9.37;57.46
22651;BME280;11492;42.646;23.400;2023-02-20T05:02:29;95538.38;;;9.44;57.62
22651;BME280;11492;42.646;23.400;2023-02-20T05:04:55;95535.47;;;9.46;57.49
22651;BME280;11492;42.646;23.400;2023-02-20T05:07:21;95535.63;;;9.21;56.97
22651;BME280;11492;42.646;23.400;2023-02-20T05:09:46;95539.09;;;9.05;56.82
22651;BME280;11492;42.646;23.400;2023-02-20T05:12:12;95536.38;;;9.14;56.76
22651;BME280;11492;42.646;23.400;2023-02-20T05:14:37;95547.66;;;9.13;56.50
22651;BME280;11492;42.646;23.400;2023-02-20T05:17:03;95541.84;;;9.03;56.30
22651;BME280;11492;42.646;23.400;2023-02-20T05:19:28;95551.69;;;9.16;55.79
22651;BME280;11492;42.646;23.400;2023-02-20T05:21:53;95549.69;;;8.94;55.17
22651;BME280;11492;42.646;23.400;2023-02-20T05:24:37;95552.13;;;9.03;55.30
22651;BME280;11492;42.646;23.400;2023-02-20T05:27:02;95564.38;;;9.09;54.64
22651;BME280;11492;42.646;23.400;2023-02-20T05:29:28;95560.81;;;9.02;54.43
22651;BME280;11492;42.646;23.400;2023-02-20T05:31:54;95584.13;;;8.93;54.53
22651;BME280;11492;42.646;23.400;2023-02-20T05:34:19;95563.63;;;8.76;54.89
22651;BME280;11492;42.646;23.400;2023-02-20T05:36:50;95583.25;;;8.85;55.21
22651;BME280;11492;42.646;23.400;2023-02-20T05:39:15;95586.47;;;8.79;54.92
22651;BME280;11492;42.646;23.400;2023-02-20T05:41:41;95595.47;;;8.75;55.42
22651;BME280;11492;42.646;23.400;2023-02-20T05:44:07;95585.81;;;8.77;55.82
22651;BME280;11492;42.646;23.400;2023-02-20T05:46:38;95594.06;;;8.88;55.06
22651;BME280;11492;42.646;23.400;2023-02-20T05:49:04;95597.72;;;8.78;55.84
22651;BME280;11492;42.646;23.400;2023-02-20T05:51:31;95594.84;;;8.81;56.02
22651;BME280;11492;42.646;23.400;2023-02-20T05:53:56;95612.00;;;8.97;56.26
22651;BME280;11492;42.646;23.400;2023-02-20T05:56:22;95598.47;;;8.96;56.60
22651;BME280;11492;42.646;23.400;2023-02-20T05:58:48;95602.19;;;9.01;57.01
22651;BME280;11492;42.646;23.400;2023-02-20T06:01:28;95605.94;;;9.14;56.70
22651;BME280;11492;42.646;23.400;2023-02-20T06:03:54;95601.59;;;9.15;56.59
22651;BME280;11492;42.646;23.400;2023-02-20T06:06:20;95606.25;;;9.11;56.54
22651;BME280;11492;42.646;23.400;2023-02-20T06:08:46;95614.63;;;9.13;56.78
22651;BME280;11492;42.646;23.400;2023-02-20T06:11:12;95604.84;;;9.17;56.58
22651;BME280;11492;42.646;23.400;2023-02-20T06:13:39;95609.84;;;9.26;56.15
22651;BME280;11492;42.646;23.400;2023-02-20T06:16:06;95619.03;;;9.28;56.01
22651;BME280;11492;42.646;23.400;2023-02-20T06:18:31;95618.69;;;9.31;55.71
22651;BME280;11492;42.646;23.400;2023-02-20T06:20:56;95609.22;;;9.32;55.63
22651;BME280;11492;42.646;23.400;2023-02-20T06:23:22;95612.44;;;9.34;52.91
22651;BME280;11492;42.646;23.400;2023-02-20T06:25:48;95615.03;;;9.42;51.73
22651;BME280;11492;42.646;23.400;2023-02-20T06:28:13;95625.06;;;9.60;52.30
22651;BME280;11492;42.646;23.400;2023-02-20T06:30:39;95624.31;;;9.75;51.90
22651;BME280;11492;42.646;23.400;2023-02-20T06:33:04;95625.50;;;9.89;51.57
22651;BME280;11492;42.646;23.400;2023-02-20T06:35:30;95617.75;;;9.89;50.69
22651;BME280;11492;42.646;23.400;2023-02-20T06:37:55;95625.31;;;9.98;50.70
22651;BME280;11492;42.646;23.400;2023-02-20T06:40:21;95634.69;;;10.07;51.26
22651;BME280;11492;42.646;23.400;2023-02-20T06:42:46;95636.31;;;10.23;50.26
22651;BME280;11492;42.646;23.400;2023-02-20T06:45:12;95632.59;;;10.34;49.99
22651;BME280;11492;42.646;23.400;2023-02-20T06:47:37;95650.66;;;10.42;49.56
22651;BME280;11492;42.646;23.400;2023-02-20T06:50:03;95644.06;;;10.47;48.42
22651;BME280;11492;42.646;23.400;2023-02-20T06:52:29;95647.91;;;10.27;48.69
22651;BME280;11492;42.646;23.400;2023-02-20T06:54:54;95656.94;;;10.39;48.13
22651;BME280;11492;42.646;23.400;2023-02-20T06:57:20;95657.59;;;10.33;48.63
22651;BME280;11492;42.646;23.400;2023-02-20T06:59:45;95659.19;;;10.19;48.09
22651;BME280;11492;42.646;23.400;2023-02-20T07:02:13;95653.56;;;10.31;48.48
22651;BME280;11492;42.646;23.400;2023-02-20T07:04:39;95663.56;;;10.26;48.67
22651;BME280;11492;42.646;23.400;2023-02-20T07:07:04;95652.75;;;9.99;49.00
22651;BME280;11492;42.646;23.400;2023-02-20T07:09:30;95651.63;;;10.01;49.12
22651;BME280;11492;42.646;23.400;2023-02-20T07:11:56;95671.44;;;10.01;48.99
22651;BME280;11492;42.646;23.400;2023-02-20T07:14:22;95662.59;;;10.11;48.92
22651;BME280;11492;42.646;23.400;2023-02-20T07:16:47;95645.00;;;10.07;48.66
22651;BME280;11492;42.646;23.400;2023-02-20T07:19:13;95670.66;;;10.16;47.85
22651;BME280;11492;42.646;23.400;2023-02-20T07:21:39;95668.09;;;10.32;47.54
22651;BME280;11492;42.646;23.400;2023-02-20T07:24:05;95658.72;;;10.39;47.00
22651;BME280;11492;42.646;23.400;2023-02-20T07:26:31;95672.13;;;10.58;46.82
22651;BME280;11492;42.646;23.400;2023-02-20T07:28:57;95666.31;;;10.71;45.91
22651;BME280;11492;42.646;23.400;2023-02-20T07:31:23;95684.81;;;10.91;45.61
22651;BME280;11492;42.646;23.400;2023-02-20T07:33:48;95690.50;;;10.78;44.16
22651;BME280;11492;42.646;23.400;2023-02-20T07:36:14;95655.50;;;10.52;44.49
22651;BME280;11492;42.646;23.400;2023-02-20T07:38:40;95662.22;;;10.85;44.49
22651;BME280;11492;42.646;23.400;2023-02-20T07:41:06;95652.56;;;10.55;43.71
22651;BME280;11492;42.646;23.400;2023-02-20T07:43:32;95659.38;;;10.56;43.89
22651;BME280;11492;42.646;23.400;2023-02-20T07:45:57;95665.66;;;10.70;43.83
22651;BME280;11492;42.646;23.400;2023-02-20T07:48:23;95669.34;;;10.75;43.42
22651;BME280;11492;42.646;23.400;2023-02-20T07:50:48;95665.66;;;10.70;42.82
22651;BME280;11492;42.646;23.400;2023-02-20T07:53:16;95664.81;;;10.93;43.48
22651;BME280;11492;42.646;23.400;2023-02-20T07:55:41;95663.63;;;11.11;42.52
22651;BME280;11492;42.646;23.400;2023-02-20T07:58:07;95684.19;;;10.65;41.97
22651;BME280;11492;42.646;23.400;2023-02-20T08:00:33;95676.94;;;10.69;42.67
22651;BME280;11492;42.646;23.400;2023-02-20T08:02:58;95682.94;;;10.53;42.46
22651;BME280;11492;42.646;23.400;2023-02-20T08:05:24;95677.44;;;10.64;42.63
22651;BME280;11492;42.646;23.400;2023-02-20T08:07:51;95667.13;;;10.48;42.68
22651;BME280;11492;42.646;23.400;2023-02-20T08:10:19;95674.88;;;10.56;42.66
22651;BME280;11492;42.646;23.400;2023-02-20T08:12:46;95683.75;;;10.30;43.58
22651;BME280;11492;42.646;23.400;2023-02-20T08:15:12;95681.16;;;10.38;43.04
22651;BME280;11492;42.646;23.400;2023-02-20T08:17:40;95649.84;;;10.49;42.46
22651;BME280;11492;42.646;23.400;2023-02-20T08:20:07;95673.22;;;10.71;42.52
22651;BME280;11492;42.646;23.400;2023-02-20T08:22:33;95675.97;;;10.70;41.45
22651;BME280;11492;42.646;23.400;2023-02-20T08:24:59;95665.75;;;10.92;42.37
22651;BME280;11492;42.646;23.400;2023-02-20T08:27:25;95669.59;;;11.19;41.37
22651;BME280;11492;42.646;23.400;2023-02-20T08:29:51;95659.72;;;13.00;38.49
22651;BME280;11492;42.646;23.400;2023-02-20T08:32:17;95653.25;;;14.85;34.35
22651;BME280;11492;42.646;23.400;2023-02-20T08:34:42;95640.00;;;16.13;32.35
22651;BME280;11492;42.646;23.400;2023-02-20T08:37:08;95661.94;;;17.52;30.98
22651;BME280;11492;42.646;23.400;2023-02-20T08:39:34;95674.34;;;17.76;29.77
22651;BME280;11492;42.646;23.400;2023-02-20T08:42:00;95656.38;;;18.72;28.35
22651;BME280;11492;42.646;23.400;2023-02-20T08:44:25;95661.91;;;18.95;28.21
22651;BME280;11492;42.646;23.400;2023-02-20T08:46:51;95637.47;;;20.30;26.64
22651;BME280;11492;42.646;23.400;2023-02-20T08:49:17;95642.47;;;21.41;25.51
22651;BME280;11492;42.646;23.400;2023-02-20T08:51:47;95651.97;;;20.33;26.01
22651;BME280;11492;42.646;23.400;2023-02-20T08:54:14;95661.66;;;19.68;26.81
22651;BME280;11492;42.646;23.400;2023-02-20T08:56:41;95648.53;;;18.72;27.94
22651;BME280;11492;42.646;23.400;2023-02-20T08:59:07;95650.00;;;20.28;26.83
22651;BME280;11492;42.646;23.400;2023-02-20T09:01:32;95652.44;;;20.59;26.15
22651;BME280;11492;42.646;23.400;2023-02-20T09:03:58;95641.75;;;20.43;25.92
22651;BME280;11492;42.646;23.400;2023-02-20T09:06:23;95660.19;;;21.34;24.95
22651;BME280;11492;42.646;23.400;2023-02-20T09:08:51;95628.34;;;20.50;25.49
22651;BME280;11492;42.646;23.400;2023-02-20T09:11:16;95654.06;;;21.11;25.29
22651;BME280;11492;42.646;23.400;2023-02-20T09:13:43;95632.97;;;20.66;25.19
22651;BME280;11492;42.646;23.400;2023-02-20T09:16:10;95610.22;;;21.46;24.63
22651;BME280;11492;42.646;23.400;2023-02-20T09:18:35;95645.72;;;21.14;25.10
22651;BME280;11492;42.646;23.400;2023-02-20T09:21:01;95647.47;;;20.80;24.88
22651;BME280;11492;42.646;23.400;2023-02-20T09:23:26;95650.31;;;20.67;24.89
22651;BME280;11492;42.646;23.400;2023-02-20T09:25:51;95627.09;;;20.24;25.52
22651;BME280;11492;42.646;23.400;2023-02-20T09:28:18;95614.94;;;18.99;26.77
22651;BME280;11492;42.646;23.400;2023-02-20T09:30:43;95629.63;;;20.30;26.17
22651;BME280;11492;42.646;23.400;2023-02-20T09:33:09;95612.66;;;19.45;26.50
22651;BME280;11492;42.646;23.400;2023-02-20T09:35:34;95621.28;;;20.04;25.75
22651;BME280;11492;42.646;23.400;2023-02-20T09:38:00;95604.25;;;20.94;25.03
22651;BME280;11492;42.646;23.400;2023-02-20T09:40:28;95632.34;;;20.06;25.39
22651;BME280;11492;42.646;23.400;2023-02-20T09:45:32;95622.44;;;20.08;26.28
22651;BME280;11492;42.646;23.400;2023-02-20T09:48:30;95618.09;;;21.57;24.80
22651;BME280;11492;42.646;23.400;2023-02-20T09:51:05;95640.47;;;21.93;24.01
22651;BME280;11492;42.646;23.400;2023-02-20T09:53:40;95624.06;;;20.67;25.73
22651;BME280;11492;42.646;23.400;2023-02-20T09:56:12;95643.34;;;20.15;25.81
22651;BME280;11492;42.646;23.400;2023-02-20T09:58:43;95629.94;;;20.51;25.82
22651;BME280;11492;42.646;23.400;2023-02-20T10:01:15;95647.19;;;20.30;25.71
22651;BME280;11492;42.646;23.400;2023-02-20T10:04:01;95647.31;;;19.88;26.63
22651;BME280;11492;42.646;23.400;2023-02-20T10:06:31;95629.56;;;20.77;25.42
22651;BME280;11492;42.646;23.400;2023-02-20T10:08:57;95629.19;;;21.48;24.96
22651;BME280;11492;42.646;23.400;2023-02-20T10:22:17;95634.06;;;22.39;22.81
22651;BME280;11492;42.646;23.400;2023-02-20T10:27:55;95639.44;;;19.71;24.46
22651;BME280;11492;42.646;23.400;2023-02-20T10:30:28;95622.09;;;20.05;24.60
22651;BME280;11492;42.646;23.400;2023-02-20T10:33:00;95613.34;;;20.80;23.91
22651;BME280;11492;42.646;23.400;2023-02-20T10:35:38;95618.00;;;21.29;23.32
22651;BME280;11492;42.646;23.400;2023-02-20T10:38:08;95599.84;;;21.39;22.90
22651;BME280;11492;42.646;23.400;2023-02-20T10:43:21;95604.44;;;22.60;22.11
22651;BME280;11492;42.646;23.400;2023-02-20T10:49:16;95602.56;;;22.17;22.18
22651;BME280;11492;42.646;23.400;2023-02-20T10:51:46;95602.25;;;23.17;21.26
22651;BME280;11492;42.646;23.400;2023-02-20T10:54:39;95573.03;;;23.51;20.97
22651;BME280;11492;42.646;23.400;2023-02-20T10:57:15;95577.00;;;23.74;21.22
22651;BME280;11492;42.646;23.400;2023-02-20T11:00:02;95570.53;;;23.60;21.12
22651;BME280;11492;42.646;23.400;2023-02-20T11:02:33;95575.28;;;24.05;20.77
22651;BME280;11492;42.646;23.400;2023-02-20T11:05:11;95584.53;;;23.45;20.70
22651;BME280;11492;42.646;23.400;2023-02-20T11:07:38;95572.91;;;23.62;20.46
22651;BME280;11492;42.646;23.400;2023-02-20T11:10:04;95578.34;;;24.14;20.00
22651;BME280;11492;42.646;23.400;2023-02-20T11:12:45;95583.50;;;24.51;19.77
22651;BME280;11492;42.646;23.400;2023-02-20T11:15:15;95585.78;;;25.30;19.40
22651;BME280;11492;42.646;23.400;2023-02-20T11:17:42;95593.63;;;24.59;19.38
22651;BME280;11492;42.646;23.400;2023-02-20T11:22:58;95593.03;;;24.78;19.64
22651;BME280;11492;42.646;23.400;2023-02-20T11:25:30;95592.06;;;25.20;19.57
22651;BME280;11492;42.646;23.400;2023-02-20T11:28:18;95577.31;;;23.56;20.19
22651;BME280;11492;42.646;23.400;2023-02-20T11:30:47;95600.75;;;23.21;20.89
22651;BME280;11492;42.646;23.400;2023-02-20T11:33:21;95601.00;;;23.03;21.22
22651;BME280;11492;42.646;23.400;2023-02-20T11:35:56;95590.38;;;22.54;21.63
22651;BME280;11492;42.646;23.400;2023-02-20T11:38:29;95582.63;;;22.92;21.08
22651;BME280;11492;42.646;23.400;2023-02-20T11:43:26;95584.44;;;25.23;19.45
22651;BME280;11492;42.646;23.400;2023-02-20T11:46:17;95589.81;;;25.74;19.23
22651;BME280;11492;42.646;23.400;2023-02-20T11:51:40;95586.41;;;25.78;19.48
22651;BME280;11492;42.646;23.400;2023-02-20T11:54:18;95577.00;;;27.06;18.35
22651;BME280;11492;42.646;23.400;2023-02-20T11:56:58;95579.09;;;27.53;18.01
22651;BME280;11492;42.646;23.400;2023-02-20T11:59:40;95586.25;;;26.74;18.62
22651;BME280;11492;42.646;23.400;2023-02-20T12:04:37;95566.81;;;25.79;19.18
22651;BME280;11492;42.646;23.400;2023-02-20T12:12:35;95554.97;;;26.91;18.75
22651;BME280;11492;42.646;23.400;2023-02-20T12:15:00;95552.09;;;27.07;18.57
22651;BME280;11492;42.646;23.400;2023-02-20T12:17:39;95552.25;;;26.52;18.70
22651;BME280;11492;42.646;23.400;2023-02-20T12:20:16;95563.06;;;24.99;19.56
22651;BME280;11492;42.646;23.400;2023-02-20T12:23:34;95581.31;;;23.80;20.81
22651;BME280;11492;42.646;23.400;2023-02-20T12:25:54;95571.38;;;25.43;20.19
22651;BME280;11492;42.646;23.400;2023-02-20T12:28:38;95557.06;;;26.64;18.66
22651;BME280;11492;42.646;23.400;2023-02-20T12:36:29;95577.72;;;27.95;17.53
22651;BME280;11492;42.646;23.400;2023-02-20T12:41:38;95575.22;;;25.71;18.92
22651;BME280;11492;42.646;23.400;2023-02-20T12:44:39;95569.47;;;25.79;19.05
22651;BME280;11492;42.646;23.400;2023-02-20T12:47:28;95578.50;;;26.58;18.88
22651;BME280;11492;42.646;23.400;2023-02-20T12:56:12;95574.09;;;27.03;18.36
22651;BME280;11492;42.646;23.400;2023-02-20T12:58:58;95569.13;;;26.16;18.94
22651;BME280;11492;42.646;23.400;2023-02-20T13:01:25;95584.97;;;24.94;19.56
22651;BME280;11492;42.646;23.400;2023-02-20T13:06:34;95566.28;;;25.01;20.07
22651;BME280;11492;42.646;23.400;2023-02-20T13:09:24;95566.66;;;27.00;18.42
22651;BME280;11492;42.646;23.400;2023-02-20T13:12:19;95569.84;;;26.92;18.20
22651;BME280;11492;42.646;23.400;2023-02-20T13:18:24;95568.34;;;25.70;18.79
22651;BME280;11492;42.646;23.400;2023-02-20T13:20:21;95572.66;;;25.81;18.92
22651;BME280;11492;42.646;23.400;2023-02-20T13:23:05;95586.72;;;26.47;18.46
22651;BME280;11492;42.646;23.400;2023-02-20T13:25:50;95569.16;;;26.26;18.59
22651;BME280;11492;42.646;23.400;2023-02-20T13:28:39;95588.31;;;26.57;18.59
22651;BME280;11492;42.646;23.400;2023-02-20T13:33:39;95575.16;;;26.82;18.17
22651;BME280;11492;42.646;23.400;2023-02-20T13:36:59;95569.84;;;27.26;18.14
22651;BME280;11492;42.646;23.400;2023-02-20T13:57:24;95641.91;;;17.40;28.53
22651;BME280;11492;42.646;23.400;2023-02-20T13:59:54;95627.47;;;16.74;29.65
22651;BME280;11492;42.646;23.400;2023-02-20T14:02:23;95630.88;;;17.06;29.25
22651;BME280;11492;42.646;23.400;2023-02-20T14:05:05;95622.78;;;16.12;30.27
22651;BME280;11492;42.646;23.400;2023-02-20T14:07:34;95628.78;;;16.13;30.50
22651;BME280;11492;42.646;23.400;2023-02-20T14:12:40;95609.97;;;16.30;30.25
22651;BME280;11492;42.646;23.400;2023-02-20T14:15:06;95599.38;;;16.38;30.79
22651;BME280;11492;42.646;23.400;2023-02-20T14:17:35;95607.19;;;16.50;30.18
22651;BME280;11492;42.646;23.400;2023-02-20T14:20:05;95607.19;;;16.25;30.71
22651;BME280;11492;42.646;23.400;2023-02-20T14:22:34;95608.19;;;15.71;31.31
22651;BME280;11492;42.646;23.400;2023-02-20T14:25:23;95616.75;;;16.18;31.29
22651;BME280;11492;42.646;23.400;2023-02-20T14:27:49;95618.41;;;15.27;32.24
22651;BME280;11492;42.646;23.400;2023-02-20T14:30:21;95618.78;;;15.30;32.55
22651;BME280;11492;42.646;23.400;2023-02-20T14:32:54;95630.38;;;15.61;32.55
22651;BME280;11492;42.646;23.400;2023-02-20T14:38:20;95626.97;;;16.13;31.74
22651;BME280;11492;42.646;23.400;2023-02-20T14:40:47;95622.78;;;16.19;31.79
22651;BME280;11492;42.646;23.400;2023-02-20T14:43:17;95634.59;;;15.29;32.86
22651;BME280;11492;42.646;23.400;2023-02-20T14:45:45;95640.72;;;15.15;33.28
22651;BME280;11492;42.646;23.400;2023-02-20T14:48:26;95644.06;;;14.82;34.12
22651;BME280;11492;42.646;23.400;2023-02-20T14:51:13;95647.13;;;14.45;34.55
22651;BME280;11492;42.646;23.400;2023-02-20T14:53:39;95649.34;;;14.27;35.54
22651;BME280;11492;42.646;23.400;2023-02-20T14:58:51;95655.72;;;14.04;35.37
22651;BME280;11492;42.646;23.400;2023-02-20T15:04:04;95647.88;;;13.69;36.70
22651;BME280;11492;42.646;23.400;2023-02-20T15:06:35;95656.94;;;13.45;36.78
22651;BME280;11492;42.646;23.400;2023-02-20T15:09:03;95658.19;;;13.48;36.72
22651;BME280;11492;42.646;23.400;2023-02-20T15:11:31;95640.03;;;13.48;37.59